Ajax — V7JF9 — position and weather

sailwx.info

Track history (hours):
 
Tides and Currents Weather Stations Pressure Air Temp Water Temp Dewpoint Dewpoint Depression Visibility Wind Speed Wind Dir Waves Ship Positions

Ajax

Last reported at 2018-Apr-25 16:58 UTC. Time now 2018-Apr-27 03:02 UTC.
Position N 23°24' E 117°54'.

Length 225 m; draft 8.2 m.

Type: Cargo ship. MMSI: 538002511.

Date/timePositionNaut miles runAvg speedWind from/ knotsBaromVisibWave heightAir tempDewpointWater temp
2018-Apr-25 16:58N 23°24' E 117°54'611.8
2018-Apr-25 16:26N 23°20' E 117°48'  
2018-Apr-19 23:25N 23°14' E 117°43'1213.4
2018-Apr-19 22:33N 23°21' E 117°54'113.7
2018-Apr-19 22:30N 23°21' E 117°55'1013.6
2018-Apr-19 21:46N 23°28' E 118°03'513.8
2018-Apr-19 21:25N 23°31' E 118°07'613.6
2018-Apr-19 21:00N 23°34' E 118°12'713.4
2018-Apr-19 20:29N 23°37' E 118°19'713.7
2018-Apr-19 20:00N 23°40' E 118°25'713.7
2018-Apr-19 19:30N 23°45' E 118°31'913.5
2018-Apr-19 18:52N 23°50' E 118°38'713.3
2018-Apr-19 18:21N 23°54' E 118°44'413.1
2018-Apr-19 18:00N 23°58' E 118°48'613.1
2018-Apr-19 17:31N 24°02' E 118°53'712.8
2018-Apr-19 17:00N 24°06' E 118°58'712.6
2018-Apr-19 16:28N 24°11' E 119°03'612.3
2018-Apr-19 15:59N 24°15' E 119°08'612.0
2018-Apr-19 15:30N 24°19' E 119°12'611.7
2018-Apr-19 15:00N 24°24' E 119°17'611.2
2018-Apr-19 14:30N 24°27' E 119°21'610.5
2018-Apr-19 13:57N 24°31' E 119°26'5 9.9
2018-Apr-19 13:29N 24°34' E 119°30'5 9.8
2018-Apr-19 12:57N 24°38' E 119°34'510.0
2018-Apr-19 12:25N 24°42' E 119°38'410.4
2018-Apr-19 12:00N 24°44' E 119°42'510.6
2018-Apr-19 11:30N 24°48' E 119°46'510.7
2018-Apr-19 11:00N 24°52' E 119°50'510.7
2018-Apr-19 10:30N 24°55' E 119°55'610.8
2018-Apr-19 09:55N 24°60' E 119°60'2311.2
2018-Apr-19 07:53N 25°16' E 120°18'711.9
2018-Apr-19 07:16N 25°21' E 120°24'36012.3
2018-Apr-18 02:06N 30°17' E 124°16'112.3
2018-Apr-18 02:00N 30°18' E 124°16'  
Track history (hours):
 
Tides and Currents Weather Stations Pressure Air Temp Water Temp Dewpoint Dewpoint Depression Visibility Wind Speed Wind Dir Waves Ship Positions

Ajax

Last reported at 2018-Apr-25 16:58 UTC. Time now 2018-Apr-27 03:02 UTC.
Position N 23°24' E 117°54'.

Length 225 m; draft 8.2 m.

Type: Cargo ship. MMSI: 538002511.

Date/timePositionNaut miles runAvg speedWind from/ knotsBaromVisibWave heightAir tempDewpointWater temp
2018-Apr-25 16:58N 23°24' E 117°54'611.8
2018-Apr-25 16:26N 23°20' E 117°48'  
2018-Apr-19 23:25N 23°14' E 117°43'1213.4
2018-Apr-19 22:33N 23°21' E 117°54'113.7
2018-Apr-19 22:30N 23°21' E 117°55'1013.6
2018-Apr-19 21:46N 23°28' E 118°03'513.8
2018-Apr-19 21:25N 23°31' E 118°07'613.6
2018-Apr-19 21:00N 23°34' E 118°12'713.4
2018-Apr-19 20:29N 23°37' E 118°19'713.7
2018-Apr-19 20:00N 23°40' E 118°25'713.7
2018-Apr-19 19:30N 23°45' E 118°31'913.5
2018-Apr-19 18:52N 23°50' E 118°38'713.3
2018-Apr-19 18:21N 23°54' E 118°44'413.1
2018-Apr-19 18:00N 23°58' E 118°48'613.1
2018-Apr-19 17:31N 24°02' E 118°53'712.8
2018-Apr-19 17:00N 24°06' E 118°58'712.6
2018-Apr-19 16:28N 24°11' E 119°03'612.3
2018-Apr-19 15:59N 24°15' E 119°08'612.0
2018-Apr-19 15:30N 24°19' E 119°12'611.7
2018-Apr-19 15:00N 24°24' E 119°17'611.2
2018-Apr-19 14:30N 24°27' E 119°21'610.5
2018-Apr-19 13:57N 24°31' E 119°26'5 9.9
2018-Apr-19 13:29N 24°34' E 119°30'5 9.8
2018-Apr-19 12:57N 24°38' E 119°34'510.0
2018-Apr-19 12:25N 24°42' E 119°38'410.4
2018-Apr-19 12:00N 24°44' E 119°42'510.6
2018-Apr-19 11:30N 24°48' E 119°46'510.7
2018-Apr-19 11:00N 24°52' E 119°50'510.7
2018-Apr-19 10:30N 24°55' E 119°55'610.8
2018-Apr-19 09:55N 24°60' E 119°60'2311.2
2018-Apr-19 07:53N 25°16' E 120°18'711.9
2018-Apr-19 07:16N 25°21' E 120°24'36012.3
2018-Apr-18 02:06N 30°17' E 124°16'112.3
2018-Apr-18 02:00N 30°18' E 124°16'  

Dump ship's entire track history